createdAt,value
2018-08-12T00:00:19.776Z,21.41
2018-08-12T00:02:48.543Z,21.28
2018-08-12T00:05:17.183Z,21.04
2018-08-12T00:07:46.088Z,20.79
2018-08-12T00:10:14.928Z,20.54
2018-08-12T00:12:43.652Z,20.39
2018-08-12T00:15:16.070Z,20.39
2018-08-12T00:17:44.789Z,20.39
2018-08-12T00:20:16.923Z,20.35
2018-08-12T00:22:46.522Z,20.48
2018-08-12T00:25:16.640Z,21.01
2018-08-12T00:27:45.408Z,21.43
2018-08-12T00:30:16.128Z,21.77
2018-08-12T00:32:44.900Z,21.58
2018-08-12T00:35:14.866Z,21.35
2018-08-12T00:37:43.548Z,21.12
2018-08-12T00:40:14.018Z,20.98
2018-08-12T00:42:43.125Z,20.95
2018-08-12T00:45:15.839Z,20.98
2018-08-12T00:47:45.250Z,20.97
2018-08-12T00:50:14.867Z,20.97
2018-08-12T00:52:43.672Z,21.12
2018-08-12T00:55:14.605Z,21.01
2018-08-12T00:57:44.240Z,20.91
2018-08-12T01:00:20.578Z,20.78
2018-08-12T01:02:49.319Z,20.49
2018-08-12T01:05:19.055Z,20.38
2018-08-12T01:07:48.779Z,20.27
2018-08-12T01:10:18.205Z,20.08
2018-08-12T01:12:46.980Z,20.01
2018-08-12T01:15:21.507Z,19.95
2018-08-12T01:17:50.339Z,19.98
2018-08-12T01:20:25.120Z,19.98
2018-08-12T01:22:53.877Z,19.91
2018-08-12T01:25:22.907Z,19.92
2018-08-12T01:27:51.650Z,19.93
2018-08-12T01:30:21.480Z,19.92
2018-08-12T01:32:50.240Z,19.93
2018-08-12T01:35:19.070Z,19.90
2018-08-12T01:37:48.443Z,19.93
2018-08-12T01:40:17.945Z,19.88
2018-08-12T01:42:46.735Z,19.79
2018-08-12T01:45:17.670Z,19.72
2018-08-12T01:47:46.294Z,19.74
2018-08-12T01:50:16.603Z,19.73
2018-08-12T01:52:45.345Z,19.70
2018-08-12T01:55:14.142Z,19.69
2018-08-12T01:57:42.840Z,19.62
2018-08-12T02:00:17.388Z,19.48
2018-08-12T02:02:46.477Z,19.44
2018-08-12T02:05:15.742Z,19.39
2018-08-12T02:07:44.580Z,19.39
2018-08-12T02:10:13.322Z,19.43
2018-08-12T02:12:42.013Z,19.38
2018-08-12T02:15:11.443Z,19.27
2018-08-12T02:17:40.640Z,19.19
2018-08-12T02:20:10.350Z,19.10
2018-08-12T02:22:39.560Z,19.07
2018-08-12T02:25:08.948Z,19.02
2018-08-12T02:27:37.667Z,18.91
2018-08-12T02:30:08.796Z,18.88
2018-08-12T02:32:37.558Z,18.82
2018-08-12T02:35:06.512Z,18.78
2018-08-12T02:37:35.146Z,18.67
2018-08-12T02:40:05.468Z,18.64
2018-08-12T02:42:34.244Z,18.66
2018-08-12T02:45:03.531Z,18.64
2018-08-12T02:47:32.198Z,18.63
2018-08-12T02:50:00.821Z,18.52
2018-08-12T02:52:29.452Z,18.40
2018-08-12T02:54:58.086Z,18.29
2018-08-12T02:57:26.732Z,18.16
2018-08-12T02:59:55.402Z,18.00
2018-08-12T03:02:24.088Z,17.85
2018-08-12T03:04:52.709Z,17.74
2018-08-12T03:07:21.387Z,17.83
2018-08-12T03:09:49.987Z,17.84
2018-08-12T03:12:18.620Z,17.88
2018-08-12T03:14:47.200Z,17.95
2018-08-12T03:17:15.918Z,18.02
2018-08-12T03:19:44.533Z,18.08
2018-08-12T03:22:13.175Z,18.17
2018-08-12T03:24:41.830Z,18.20
2018-08-12T03:27:10.478Z,18.28
2018-08-12T03:29:39.191Z,18.33
2018-08-12T03:32:07.876Z,18.35
2018-08-12T03:34:36.536Z,18.24
2018-08-12T03:37:05.510Z,18.26
2018-08-12T03:39:34.173Z,18.22
2018-08-12T03:42:02.818Z,18.06
2018-08-12T03:44:31.478Z,18.02
2018-08-12T03:47:00.218Z,18.04
2018-08-12T03:49:28.888Z,18.05
2018-08-12T03:51:57.538Z,18.09
2018-08-12T03:54:26.300Z,18.07
2018-08-12T03:56:54.975Z,18.04
2018-08-12T03:59:23.685Z,18.05
2018-08-12T04:01:52.338Z,18.02
2018-08-12T04:04:21.098Z,18.01
2018-08-12T04:06:49.793Z,17.99
2018-08-12T04:09:18.488Z,17.97
2018-08-12T04:11:47.223Z,18.01
2018-08-12T04:14:15.961Z,18.03
2018-08-12T04:16:49.100Z,17.86
2018-08-12T04:19:17.839Z,17.69
2018-08-12T04:21:46.480Z,17.54
2018-08-12T04:24:15.158Z,17.54
2018-08-12T04:26:43.831Z,17.55
2018-08-12T04:29:12.405Z,17.50
2018-08-12T04:31:41.021Z,17.52
2018-08-12T04:34:09.738Z,17.55
2018-08-12T04:36:38.468Z,17.61
2018-08-12T04:39:10.806Z,17.66
2018-08-12T04:41:40.038Z,17.77
2018-08-12T04:44:08.708Z,17.99
2018-08-12T04:46:37.936Z,18.17
2018-08-12T04:49:07.723Z,18.42
2018-08-12T04:51:36.495Z,18.56
2018-08-12T04:54:05.712Z,18.84
2018-08-12T04:56:34.438Z,19.06
2018-08-12T04:59:03.238Z,19.17
2018-08-12T05:01:31.865Z,19.09
2018-08-12T05:04:00.562Z,19.10
2018-08-12T05:06:29.255Z,19.30
2018-08-12T05:08:57.902Z,19.57
2018-08-12T05:11:26.766Z,19.92
2018-08-12T05:13:55.502Z,20.30
2018-08-12T05:16:24.155Z,20.54
2018-08-12T05:18:52.810Z,21.21
2018-08-12T05:21:21.515Z,21.50
2018-08-12T05:23:50.166Z,21.61
2018-08-12T05:26:18.857Z,21.67
2018-08-12T05:28:47.510Z,21.81
2018-08-12T05:31:16.230Z,22.01
2018-08-12T05:33:44.883Z,22.22
2018-08-12T05:36:13.560Z,22.01
2018-08-12T05:38:42.130Z,22.18
2018-08-12T05:41:10.718Z,22.27
2018-08-12T05:43:39.393Z,22.16
2018-08-12T05:46:08.187Z,22.34
2018-08-12T05:48:36.860Z,22.63
2018-08-12T05:51:05.739Z,22.90
2018-08-12T05:53:34.384Z,23.18
2018-08-12T05:56:03.118Z,23.57
2018-08-12T05:58:31.825Z,23.85
2018-08-12T06:01:00.488Z,23.98
2018-08-12T06:03:29.230Z,24.12
2018-08-12T06:05:57.983Z,24.27
2018-08-12T06:08:26.708Z,24.58
2018-08-12T06:10:55.387Z,24.68
2018-08-12T06:13:24.090Z,24.69
2018-08-12T06:15:52.747Z,24.78
2018-08-12T06:18:21.491Z,24.88
2018-08-12T06:20:50.214Z,24.93
2018-08-12T06:23:19.704Z,25.07
2018-08-12T06:25:48.462Z,24.96
2018-08-12T06:28:17.137Z,24.93
2018-08-12T06:30:45.918Z,24.89
2018-08-12T06:33:14.980Z,25.09
2018-08-12T06:35:43.759Z,25.28
2018-08-12T06:38:12.436Z,24.64
2018-08-12T06:40:41.286Z,24.60
2018-08-12T06:43:09.976Z,24.73
2018-08-12T06:45:38.732Z,24.95
2018-08-12T06:48:07.530Z,25.57
2018-08-12T06:50:36.223Z,25.97
2018-08-12T06:53:04.963Z,26.33
2018-08-12T06:55:33.664Z,26.71
2018-08-12T06:58:02.428Z,27.10
2018-08-12T07:00:31.110Z,27.52
2018-08-12T07:02:59.741Z,27.72
2018-08-12T07:05:28.528Z,28.14
2018-08-12T07:07:57.253Z,28.30
2018-08-12T07:10:25.968Z,28.49
2018-08-12T07:12:54.713Z,28.30
2018-08-12T07:15:23.488Z,28.54
2018-08-12T07:17:52.259Z,28.62
2018-08-12T07:20:20.987Z,29.13
2018-08-12T07:22:49.819Z,29.56
2018-08-12T07:25:18.536Z,29.77
2018-08-12T07:27:47.293Z,29.81
2018-08-12T07:30:16.663Z,29.95
2018-08-12T07:32:45.380Z,29.73
2018-08-12T07:35:14.086Z,29.80
2018-08-12T07:37:42.923Z,30.04
2018-08-12T07:40:16.530Z,30.38
2018-08-12T07:42:45.848Z,30.59
2018-08-12T07:45:14.688Z,30.87
2018-08-12T07:47:43.823Z,31.20
2018-08-12T07:50:12.689Z,30.99
2018-08-12T07:52:42.836Z,31.15
2018-08-12T07:55:12.609Z,31.48
2018-08-12T07:57:42.391Z,31.62
2018-08-12T08:00:17.442Z,31.93
2018-08-12T08:02:46.446Z,32.42
2018-08-12T08:05:15.463Z,32.44
2018-08-12T08:07:45.449Z,32.48
2018-08-12T08:10:15.860Z,32.89
2018-08-12T08:12:44.878Z,33.15
2018-08-12T08:15:18.072Z,33.22
2018-08-12T08:17:47.099Z,33.45
2018-08-12T08:20:16.249Z,33.23
2018-08-12T08:22:45.311Z,33.45
2018-08-12T08:25:14.143Z,33.79
2018-08-12T08:27:42.930Z,33.65
2018-08-12T08:30:15.185Z,33.85
2018-08-12T08:32:44.133Z,33.80
2018-08-12T08:35:13.639Z,34.03
2018-08-12T08:37:42.940Z,34.37
2018-08-12T08:40:13.946Z,34.62
2018-08-12T08:42:42.698Z,34.86
2018-08-12T08:45:18.111Z,35.30
2018-08-12T08:47:48.057Z,35.68
2018-08-12T08:50:18.339Z,35.58
2018-08-12T08:52:47.191Z,35.81
2018-08-12T08:55:17.083Z,35.59
2018-08-12T08:57:46.394Z,35.34
2018-08-12T09:00:17.410Z,35.51
2018-08-12T09:02:47.547Z,35.82
2018-08-12T09:05:16.931Z,35.90
2018-08-12T09:07:45.803Z,36.07
2018-08-12T09:10:15.818Z,36.30
2018-08-12T09:12:44.658Z,36.53
2018-08-12T09:15:15.705Z,36.47
2018-08-12T09:17:45.055Z,36.54
2018-08-12T09:20:15.600Z,36.51
2018-08-12T09:22:44.508Z,36.85
2018-08-12T09:25:14.536Z,36.83
2018-08-12T09:27:43.330Z,37.10
2018-08-12T09:30:16.587Z,36.80
2018-08-12T09:32:46.143Z,36.54
2018-08-12T09:35:14.972Z,36.43
2018-08-12T09:37:43.841Z,36.89
2018-08-12T09:40:14.950Z,37.44
2018-08-12T09:42:44.510Z,37.83
2018-08-12T09:45:15.913Z,38.11
2018-08-12T09:47:44.930Z,38.08
2018-08-12T09:50:17.733Z,38.53
2018-08-12T09:52:47.367Z,38.48
2018-08-12T09:55:16.748Z,37.65
2018-08-12T09:57:45.531Z,38.28
2018-08-12T10:00:21.814Z,38.24
2018-08-12T10:02:52.413Z,38.49
2018-08-12T10:05:21.455Z,38.45
2018-08-12T10:07:50.360Z,38.58
2018-08-12T10:10:19.608Z,38.73
2018-08-12T10:12:48.431Z,39.10
2018-08-12T10:15:17.710Z,39.06
2018-08-12T10:17:52.422Z,39.31
2018-08-12T10:20:21.475Z,39.06
2018-08-12T10:22:50.763Z,38.98
2018-08-12T10:25:19.681Z,38.91
2018-08-12T10:27:48.438Z,39.00
2018-08-12T10:30:17.151Z,39.58
2018-08-12T10:32:46.054Z,39.36
2018-08-12T10:35:16.280Z,38.99
2018-08-12T10:37:45.694Z,38.92
2018-08-12T10:40:18.821Z,39.16
2018-08-12T10:42:48.438Z,39.34
2018-08-12T10:45:17.841Z,39.55
2018-08-12T10:47:47.681Z,39.63
2018-08-12T10:50:18.293Z,39.72
2018-08-12T10:52:47.781Z,40.16
2018-08-12T10:55:19.196Z,40.10
2018-08-12T10:57:48.414Z,39.98
2018-08-12T11:00:24.954Z,39.99
2018-08-12T11:02:54.262Z,40.23
2018-08-12T11:05:23.170Z,39.48
2018-08-12T11:07:53.648Z,39.73
2018-08-12T11:10:22.748Z,39.76
2018-08-12T11:12:51.492Z,39.98
2018-08-12T11:15:20.329Z,40.08
2018-08-12T11:17:49.161Z,40.67
2018-08-12T11:20:18.107Z,40.33
2018-08-12T11:22:46.816Z,39.97
2018-08-12T11:25:15.573Z,40.06
2018-08-12T11:27:44.379Z,40.55
2018-08-12T11:30:16.203Z,39.94
2018-08-12T11:32:45.199Z,40.11
2018-08-12T11:35:16.243Z,39.52
2018-08-12T11:37:45.333Z,39.58
2018-08-12T11:40:15.076Z,40.28
2018-08-12T11:42:43.933Z,39.96
2018-08-12T11:45:16.376Z,39.46
2018-08-12T11:47:46.394Z,40.21
2018-08-12T11:50:16.251Z,39.86
2018-08-12T11:52:45.474Z,40.00
2018-08-12T11:55:17.320Z,40.16
2018-08-12T11:57:46.180Z,39.47
2018-08-12T12:00:18.493Z,39.11
2018-08-12T12:02:48.683Z,39.54
2018-08-12T12:05:17.601Z,39.91
2018-08-12T12:07:46.343Z,40.04
2018-08-12T12:10:18.791Z,40.35
2018-08-12T12:12:48.976Z,39.57
2018-08-12T12:15:17.860Z,38.78
2018-08-12T12:17:47.978Z,38.33
2018-08-12T12:20:17.517Z,38.08
2018-08-12T12:22:46.806Z,38.78
2018-08-12T12:25:16.931Z,39.32
2018-08-12T12:27:45.723Z,39.78
2018-08-12T12:30:16.631Z,40.34
2018-08-12T12:32:46.717Z,40.61
2018-08-12T12:35:16.523Z,40.44
2018-08-12T12:37:45.508Z,39.32
2018-08-12T12:40:16.368Z,38.68
2018-08-12T12:42:45.771Z,37.97
2018-08-12T12:45:15.151Z,37.92
2018-08-12T12:47:45.233Z,38.21
2018-08-12T12:50:20.786Z,38.42
2018-08-12T12:52:51.276Z,38.90
2018-08-12T12:55:21.204Z,38.62
2018-08-12T12:57:50.128Z,39.23
2018-08-12T13:00:20.152Z,39.44
2018-08-12T13:02:49.594Z,39.12
2018-08-12T13:05:19.637Z,39.74
2018-08-12T13:07:49.078Z,39.04
2018-08-12T13:10:18.950Z,39.55
2018-08-12T13:12:47.890Z,40.26
2018-08-12T13:15:17.604Z,41.00
2018-08-12T13:17:46.854Z,40.91
2018-08-12T13:20:17.472Z,40.41
2018-08-12T13:22:48.387Z,40.95
2018-08-12T13:25:19.484Z,41.24
2018-08-12T13:27:48.380Z,41.56
2018-08-12T13:30:18.129Z,41.56
2018-08-12T13:32:47.688Z,41.56
2018-08-12T13:35:16.639Z,41.90
2018-08-12T13:37:45.416Z,41.21
2018-08-12T13:40:15.947Z,39.98
2018-08-12T13:42:45.379Z,39.41
2018-08-12T13:45:14.971Z,38.87
2018-08-12T13:47:45.055Z,38.60
2018-08-12T13:50:22.363Z,39.43
2018-08-12T13:52:51.741Z,39.79
2018-08-12T13:55:21.362Z,40.10
2018-08-12T13:57:51.046Z,40.32
2018-08-12T14:00:21.437Z,40.11
2018-08-12T14:02:51.031Z,40.83
2018-08-12T14:05:20.250Z,40.23
2018-08-12T14:07:49.652Z,40.40
2018-08-12T14:10:18.644Z,40.18
2018-08-12T14:12:47.504Z,39.68
2018-08-12T14:15:17.785Z,39.78
2018-08-12T14:17:47.752Z,40.36
2018-08-12T14:20:18.158Z,40.57
2018-08-12T14:22:46.979Z,40.27
2018-08-12T14:25:16.244Z,40.09
2018-08-12T14:27:46.262Z,40.28
2018-08-12T14:30:17.620Z,40.08
2018-08-12T14:32:47.211Z,40.38
2018-08-12T14:35:15.989Z,39.84
2018-08-12T14:37:44.920Z,39.95
2018-08-12T14:40:14.313Z,40.63
2018-08-12T14:42:43.323Z,41.15
2018-08-12T14:45:14.989Z,41.15
2018-08-12T14:47:44.226Z,41.20
2018-08-12T14:50:17.696Z,41.26
2018-08-12T14:52:46.758Z,41.43
2018-08-12T14:55:17.814Z,41.43
2018-08-12T14:57:46.829Z,40.96
2018-08-12T15:00:19.572Z,40.95
2018-08-12T15:02:49.674Z,40.71
2018-08-12T15:05:19.061Z,40.81
2018-08-12T15:07:48.092Z,39.95
2018-08-12T15:10:17.036Z,40.28
2018-08-12T15:12:45.770Z,40.57
2018-08-12T15:15:16.160Z,40.84
2018-08-12T15:17:45.853Z,40.83
2018-08-12T15:20:15.719Z,40.44
2018-08-12T15:22:44.775Z,39.07
2018-08-12T15:25:21.471Z,39.05
2018-08-12T15:27:50.622Z,38.88
2018-08-12T15:30:19.513Z,38.69
2018-08-12T15:32:48.389Z,38.26
2018-08-12T15:35:17.261Z,38.34
2018-08-12T15:37:46.183Z,38.57
2018-08-12T15:40:15.733Z,38.58
2018-08-12T15:42:44.769Z,38.69
2018-08-12T15:45:15.203Z,38.94
2018-08-12T15:47:45.086Z,38.48
2018-08-12T15:50:14.963Z,38.78
2018-08-12T15:52:44.814Z,38.49
2018-08-12T15:55:13.815Z,38.57
2018-08-12T15:57:43.273Z,38.51
2018-08-12T16:00:16.610Z,37.69
2018-08-12T16:02:45.591Z,37.70
2018-08-12T16:05:14.768Z,37.50
2018-08-12T16:07:44.624Z,37.20
2018-08-12T16:10:18.889Z,37.26
2018-08-12T16:12:49.659Z,36.94
2018-08-12T16:15:18.637Z,36.88
2018-08-12T16:17:47.838Z,36.39
2018-08-12T16:20:17.205Z,36.22
2018-08-12T16:22:46.040Z,36.13
2018-08-12T16:25:17.590Z,35.65
2018-08-12T16:27:46.848Z,35.25
2018-08-12T16:30:17.217Z,35.37
2018-08-12T16:32:46.555Z,35.50
2018-08-12T16:35:16.376Z,35.41
2018-08-12T16:37:46.425Z,35.03
2018-08-12T16:40:19.147Z,34.66
2018-08-12T16:42:48.562Z,34.57
2018-08-12T16:45:18.073Z,33.78
2018-08-12T16:47:47.780Z,33.00
2018-08-12T16:50:16.509Z,32.64
2018-08-12T16:52:46.320Z,32.12
2018-08-12T16:55:17.109Z,32.01
2018-08-12T16:57:46.736Z,31.92
2018-08-12T17:00:19.512Z,31.82
2018-08-12T17:02:48.658Z,31.20
2018-08-12T17:05:20.105Z,31.72
2018-08-12T17:07:49.976Z,31.64
2018-08-12T17:10:20.434Z,31.46
2018-08-12T17:12:49.210Z,31.47
2018-08-12T17:15:19.596Z,31.32
2018-08-12T17:17:48.922Z,31.27
2018-08-12T17:20:19.323Z,31.21
2018-08-12T17:22:49.413Z,31.12
2018-08-12T17:25:18.258Z,31.01
2018-08-12T17:27:47.177Z,30.97
2018-08-12T17:30:17.138Z,30.77
2018-08-12T17:32:46.061Z,30.76
2018-08-12T17:35:16.055Z,30.67
2018-08-12T17:37:45.436Z,30.58
2018-08-12T17:40:15.488Z,30.43
2018-08-12T17:42:44.215Z,30.27
2018-08-12T17:45:13.941Z,30.24
2018-08-12T17:47:43.048Z,30.22
2018-08-12T17:50:13.594Z,30.21
2018-08-12T17:52:43.399Z,30.13
2018-08-12T17:55:12.348Z,30.00
2018-08-12T17:57:41.718Z,29.89
2018-08-12T18:00:14.708Z,29.77
2018-08-12T18:02:43.616Z,29.70
2018-08-12T18:05:12.445Z,29.60
2018-08-12T18:07:41.811Z,29.45
2018-08-12T18:10:10.484Z,29.33
2018-08-12T18:12:40.178Z,29.36
2018-08-12T18:15:10.372Z,29.22
2018-08-12T18:17:39.573Z,29.11
2018-08-12T18:20:08.688Z,29.03
2018-08-12T18:22:37.592Z,29.24
2018-08-12T18:25:08.921Z,29.03
2018-08-12T18:27:37.682Z,28.89
2018-08-12T18:30:11.136Z,28.89
2018-08-12T18:32:40.071Z,29.00
2018-08-12T18:35:09.856Z,28.86
2018-08-12T18:37:38.972Z,28.75
2018-08-12T18:40:09.623Z,28.60
2018-08-12T18:42:38.668Z,28.49
2018-08-12T18:45:07.583Z,28.35
2018-08-12T18:47:36.447Z,28.40
2018-08-12T18:50:07.186Z,28.25
2018-08-12T18:52:36.344Z,28.17
2018-08-12T18:55:07.210Z,28.16
2018-08-12T18:57:35.983Z,28.11
2018-08-12T19:00:06.591Z,28.15
2018-08-12T19:02:35.291Z,28.04
2018-08-12T19:05:05.247Z,27.96
2018-08-12T19:07:34.060Z,27.89
2018-08-12T19:10:02.786Z,27.91
2018-08-12T19:12:31.459Z,27.85
2018-08-12T19:15:00.227Z,27.77
2018-08-12T19:17:28.972Z,27.75
2018-08-12T19:19:58.490Z,27.67
2018-08-12T19:22:27.180Z,27.69
2018-08-12T19:24:55.915Z,27.66
2018-08-12T19:27:24.680Z,27.63
2018-08-12T19:29:54.193Z,27.59
2018-08-12T19:32:22.973Z,27.50
2018-08-12T19:34:52.223Z,27.32
2018-08-12T19:37:21.031Z,27.00
2018-08-12T19:39:49.715Z,26.71
2018-08-12T19:42:18.413Z,26.60
2018-08-12T19:44:47.228Z,26.35
2018-08-12T19:47:16.026Z,26.11
2018-08-12T19:49:44.917Z,25.85
2018-08-12T19:52:14.331Z,25.72
2018-08-12T19:54:43.079Z,25.52
2018-08-12T19:57:12.258Z,25.46
2018-08-12T19:59:41.048Z,25.46
2018-08-12T20:02:09.758Z,25.69
2018-08-12T20:04:38.481Z,26.03
2018-08-12T20:07:07.436Z,26.34
2018-08-12T20:09:36.136Z,26.50
2018-08-12T20:12:05.190Z,26.56
2018-08-12T20:14:33.941Z,26.61
2018-08-12T20:17:02.673Z,26.64
2018-08-12T20:19:31.453Z,26.56
2018-08-12T20:22:00.298Z,26.45
2018-08-12T20:24:29.011Z,26.37
2018-08-12T20:26:58.313Z,26.33
2018-08-12T20:29:27.010Z,26.26
2018-08-12T20:32:01.469Z,26.29
2018-08-12T20:34:30.211Z,26.29
2018-08-12T20:36:59.798Z,26.28
2018-08-12T20:39:28.861Z,26.26
2018-08-12T20:41:57.679Z,26.15
2018-08-12T20:44:26.640Z,25.82
2018-08-12T20:46:55.366Z,25.85
2018-08-12T20:49:24.186Z,25.56
2018-08-12T20:51:53.026Z,25.36
2018-08-12T20:54:22.285Z,25.14
2018-08-12T20:56:51.244Z,24.93
2018-08-12T20:59:20.263Z,24.68
2018-08-12T21:01:49.053Z,24.59
2018-08-12T21:04:17.826Z,24.43
2018-08-12T21:06:46.647Z,24.20
2018-08-12T21:09:15.517Z,24.11
2018-08-12T21:11:45.964Z,23.98
2018-08-12T21:14:14.706Z,24.04
2018-08-12T21:16:43.993Z,24.03
2018-08-12T21:19:12.801Z,24.03
2018-08-12T21:21:41.602Z,24.02
2018-08-12T21:24:10.314Z,24.00
2018-08-12T21:26:39.047Z,23.86
2018-08-12T21:29:07.866Z,23.78
2018-08-12T21:31:36.668Z,23.71
2018-08-12T21:34:06.137Z,23.66
2018-08-12T21:36:34.990Z,23.62
2018-08-12T21:39:06.853Z,23.57
2018-08-12T21:41:35.715Z,23.72
2018-08-12T21:44:06.068Z,23.78
2018-08-12T21:46:35.042Z,23.85
2018-08-12T21:49:04.940Z,23.83
2018-08-12T21:51:34.374Z,23.96
2018-08-12T21:54:03.887Z,24.28
2018-08-12T21:56:33.558Z,24.51
2018-08-12T21:59:02.504Z,24.68
2018-08-12T22:01:31.422Z,24.33
2018-08-12T22:04:00.297Z,23.92
2018-08-12T22:06:29.063Z,23.68
2018-08-12T22:08:57.833Z,23.48
2018-08-12T22:11:26.639Z,23.50
2018-08-12T22:13:55.348Z,23.67
2018-08-12T22:16:24.143Z,23.47
2018-08-12T22:18:52.934Z,23.31
2018-08-12T22:21:21.657Z,23.21
2018-08-12T22:23:50.393Z,23.03
2018-08-12T22:26:19.244Z,22.95
2018-08-12T22:28:47.901Z,22.86
2018-08-12T22:31:16.626Z,22.92
2018-08-12T22:33:45.439Z,22.83
2018-08-12T22:36:14.304Z,22.83
2018-08-12T22:38:44.144Z,22.73
2018-08-12T22:41:13.459Z,22.60
2018-08-12T22:43:42.196Z,22.38
2018-08-12T22:46:10.891Z,22.20
2018-08-12T22:48:39.651Z,22.10
2018-08-12T22:51:09.168Z,22.02
2018-08-12T22:53:38.086Z,22.29
2018-08-12T22:56:06.855Z,22.44
2018-08-12T22:58:35.828Z,22.52
2018-08-12T23:01:06.103Z,22.40
2018-08-12T23:03:34.811Z,22.32
2018-08-12T23:06:03.676Z,22.31
2018-08-12T23:08:33.344Z,22.26
2018-08-12T23:11:02.064Z,22.21
2018-08-12T23:13:30.849Z,22.12
2018-08-12T23:16:18.534Z,22.01
2018-08-12T23:18:47.343Z,21.88
2018-08-12T23:21:17.100Z,21.74
2018-08-12T23:23:47.348Z,21.65
2018-08-12T23:26:17.370Z,21.60
2018-08-12T23:28:46.246Z,21.65
2018-08-12T23:31:15.006Z,21.67
2018-08-12T23:33:43.728Z,21.74
2018-08-12T23:36:12.758Z,21.70
2018-08-12T23:38:41.603Z,21.96
2018-08-12T23:41:11.091Z,21.89
2018-08-12T23:43:40.804Z,21.79
2018-08-12T23:46:10.600Z,21.76
2018-08-12T23:48:39.415Z,21.77
2018-08-12T23:51:08.498Z,21.76
2018-08-12T23:53:37.226Z,21.66
2018-08-12T23:56:06.573Z,21.55
2018-08-12T23:58:35.274Z,21.44
